Time;durP1;ratioP1;P1;durP2;ratioP2;P2;SDS_P1;SDS_P2;PMS_P1;PMS_P2;Temp;Humidity;BMP_temperature;BMP_pressure;BME280_temperature;BME280_humidity;BME280_pressure;Samples;Min_cycle;Max_cycle;Signal;HPM_P1;HPM_P2
2022/10/22 00:01:49;;;;;;;8.13;6.80;;;12.00;99.90;;;;;;4950764;28;20055;-81
2022/10/22 00:04:15;;;;;;;16.20;7.00;;;12.00;99.90;;;;;;4949299;28;20082;-79
2022/10/22 00:06:43;;;;;;;8.63;6.38;;;12.00;99.90;;;;;;4949400;28;20051;-80
2022/10/22 00:09:10;;;;;;;8.90;6.00;;;12.00;99.90;;;;;;4951041;28;20138;-79
2022/10/22 00:11:39;;;;;;;13.38;6.25;;;12.40;99.90;;;;;;4951495;28;20055;-79
2022/10/22 00:14:05;;;;;;;14.57;6.25;;;11.90;99.90;;;;;;4940668;28;20052;-79
2022/10/22 00:16:30;;;;;;;16.02;7.00;;;11.80;99.90;;;;;;4942040;29;20047;-80
2022/10/22 00:18:56;;;;;;;9.57;6.10;;;11.80;99.90;;;;;;4947170;28;20613;-80
2022/10/22 00:21:21;;;;;;;7.80;6.07;;;11.80;99.90;;;;;;4949329;28;20035;-80
2022/10/22 00:23:47;;;;;;;14.43;6.28;;;11.70;99.90;;;;;;4951449;28;20055;-79
2022/10/22 00:26:13;;;;;;;11.48;6.82;;;11.70;99.90;;;;;;4949500;28;20047;-79
2022/10/22 00:28:38;;;;;;;11.45;5.93;;;11.70;99.90;;;;;;4949164;28;20042;-80
2022/10/22 00:31:05;;;;;;;10.00;6.00;;;11.70;99.90;;;;;;4952617;28;20039;-80
2022/10/22 00:33:30;;;;;;;13.38;6.60;;;11.60;99.90;;;;;;4932509;29;20044;-79
2022/10/22 00:35:56;;;;;;;16.30;6.45;;;11.60;99.90;;;;;;4932895;29;20413;-80
2022/10/22 00:38:22;;;;;;;10.07;6.20;;;11.50;99.90;;;;;;4949262;28;20055;-79
2022/10/22 00:40:48;;;;;;;10.32;6.55;;;11.60;99.90;;;;;;4950537;28;20058;-79
2022/10/22 00:43:17;;;;;;;12.90;6.90;;;11.50;99.90;;;;;;4949109;28;20654;-79
2022/10/22 00:45:44;;;;;;;10.05;5.63;;;11.50;99.90;;;;;;4949773;28;20039;-79
2022/10/22 00:48:13;;;;;;;10.73;6.68;;;11.50;99.90;;;;;;4949502;28;20055;-79
2022/10/22 00:50:51;;;;;;;8.90;6.40;;;11.50;99.90;;;;;;4924112;29;20047;-80
2022/10/22 00:53:25;;;;;;;9.82;7.28;;;11.40;99.90;;;;;;4959921;28;20055;-80
2022/10/22 00:55:52;;;;;;;13.05;7.35;;;11.40;99.90;;;;;;4948700;28;20601;-79
2022/10/22 00:58:21;;;;;;;10.90;7.70;;;11.40;99.90;;;;;;4934656;29;20174;-79
2022/10/22 01:00:47;;;;;;;14.50;8.05;;;11.40;99.90;;;;;;4933271;29;20125;-79
2022/10/22 01:03:13;;;;;;;14.32;8.07;;;11.40;99.90;;;;;;4965280;28;20043;-79
2022/10/22 01:05:43;;;;;;;11.77;8.00;;;11.40;99.90;;;;;;4949514;28;20158;-79
2022/10/22 01:08:19;;;;;;;14.40;8.35;;;11.40;99.90;;;;;;4949460;28;20047;-79
2022/10/22 01:11:11;;;;;;;12.20;8.63;;;11.40;99.90;;;;;;4950319;28;20568;-79
2022/10/22 01:13:53;;;;;;;11.68;8.45;;;11.40;99.90;;;;;;4947625;29;20047;-80
2022/10/22 01:16:40;;;;;;;13.30;9.75;;;11.40;99.90;;;;;;4941201;28;20488;-79
2022/10/22 01:19:34;;;;;;;20.35;9.45;;;11.40;99.90;;;;;;4949717;28;20048;-79
2022/10/22 01:22:30;;;;;;;13.05;10.10;;;11.40;99.90;;;;;;4950122;28;20066;-79
2022/10/22 01:25:10;;;;;;;18.08;10.23;;;11.40;99.90;;;;;;4948387;28;20047;-79
2022/10/22 01:27:55;;;;;;;18.17;9.27;;;11.40;99.90;;;;;;4948929;29;20047;-79
2022/10/22 01:30:21;;;;;;;15.18;9.52;;;11.50;99.90;;;;;;4948506;28;20050;-79
2022/10/22 01:33:03;;;;;;;16.50;10.13;;;11.50;99.90;;;;;;4949855;28;20070;-79
2022/10/22 01:35:36;;;;;;;15.48;10.05;;;11.40;99.90;;;;;;4947413;29;20543;-79
2022/10/22 01:38:06;;;;;;;16.35;9.80;;;11.50;99.90;;;;;;4933173;29;20059;-79
2022/10/22 01:40:32;;;;;;;23.25;10.60;;;11.50;99.90;;;;;;4956066;28;20046;-79
2022/10/22 01:43:00;;;;;;;17.77;9.80;;;11.50;99.90;;;;;;4948301;28;20054;-80
2022/10/22 01:45:29;;;;;;;18.48;10.20;;;11.50;99.90;;;;;;4948880;28;20055;-79
2022/10/22 01:48:04;;;;;;;15.85;9.98;;;11.50;99.90;;;;;;4948559;28;20740;-79
2022/10/22 01:51:08;;;;;;;18.30;9.65;;;11.40;99.90;;;;;;4949287;29;20131;-79
2022/10/22 01:53:57;;;;;;;16.67;9.98;;;11.40;99.90;;;;;;4949077;28;20043;-79
2022/10/22 01:56:23;;;;;;;18.40;10.40;;;11.50;99.90;;;;;;4947765;28;20126;-79
2022/10/22 01:59:22;;;;;;;21.70;10.68;;;11.40;99.90;;;;;;4933632;29;20139;-80
2022/10/22 02:02:29;;;;;;;15.23;10.25;;;11.40;99.90;;;;;;4947001;28;20055;-79
2022/10/22 02:05:28;;;;;;;16.25;10.75;;;11.50;99.90;;;;;;4947596;28;20047;-79
2022/10/22 02:08:18;;;;;;;16.92;10.60;;;11.60;99.90;;;;;;4931047;29;20051;-79
2022/10/22 02:10:53;;;;;;;21.25;10.73;;;11.50;99.90;;;;;;4949262;28;20101;-79
2022/10/22 02:13:42;;;;;;;21.02;11.15;;;11.50;99.90;;;;;;4948075;28;20118;-79
2022/10/22 02:16:12;;;;;;;25.20;11.07;;;11.90;99.90;;;;;;4948819;28;20062;-79
2022/10/22 02:18:41;;;;;;;20.02;10.43;;;11.50;99.90;;;;;;4925396;29;20107;-79
2022/10/22 02:21:10;;;;;;;24.25;11.00;;;11.50;99.90;;;;;;4945477;29;20078;-79
2022/10/22 02:23:36;;;;;;;19.60;11.50;;;11.50;99.90;;;;;;4936794;29;20070;-79
2022/10/22 02:26:10;;;;;;;24.45;12.32;;;11.50;99.90;;;;;;4947410;28;20077;-79
2022/10/22 02:28:43;;;;;;;20.67;11.20;;;11.50;99.90;;;;;;4948173;28;20079;-79
2022/10/22 02:31:14;;;;;;;15.18;11.23;;;11.50;99.90;;;;;;4948695;28;20062;-79
2022/10/22 02:33:44;;;;;;;21.40;11.15;;;11.50;99.90;;;;;;4941159;28;20075;-79
2022/10/22 02:36:11;;;;;;;19.35;11.20;;;11.50;99.90;;;;;;4955079;28;20047;-80
2022/10/22 02:38:39;;;;;;;21.65;11.27;;;11.50;99.90;;;;;;4947216;29;20039;-79
2022/10/22 02:41:05;;;;;;;16.98;10.52;;;11.40;99.90;;;;;;4948467;28;20051;-79
2022/10/22 02:43:41;;;;;;;17.23;10.43;;;11.40;99.90;;;;;;4932314;29;20405;-79
2022/10/22 02:46:09;;;;;;;19.00;11.48;;;11.40;99.90;;;;;;4947981;28;20043;-79
2022/10/22 02:48:34;;;;;;;26.35;11.93;;;11.40;99.90;;;;;;4938510;28;20044;-80
2022/10/22 02:51:00;;;;;;;14.85;11.02;;;11.40;99.90;;;;;;4958505;28;20054;-79
2022/10/22 02:53:28;;;;;;;16.92;11.27;;;11.40;99.90;;;;;;4932444;29;20058;-79
2022/10/22 02:55:53;;;;;;;17.30;11.43;;;11.40;99.90;;;;;;4947431;28;20059;-79
2022/10/22 02:58:19;;;;;;;25.73;11.70;;;11.40;99.90;;;;;;4950751;28;20052;-79
2022/10/22 03:00:45;;;;;;;19.40;11.75;;;11.40;99.90;;;;;;4952617;28;20524;-79
2022/10/22 03:03:10;;;;;;;18.73;11.52;;;11.40;99.90;;;;;;4952310;28;20508;-79
2022/10/22 03:05:36;;;;;;;16.15;11.15;;;11.30;99.90;;;;;;4951211;28;20043;-79
2022/10/22 03:08:01;;;;;;;17.52;10.60;;;11.30;99.90;;;;;;4951361;28;20383;-79
2022/10/22 03:10:27;;;;;;;15.73;10.60;;;11.20;99.90;;;;;;4942830;28;20044;-80
2022/10/22 03:12:53;;;;;;;22.92;11.27;;;11.20;99.90;;;;;;4944794;28;20042;-80
2022/10/22 03:15:18;;;;;;;16.83;11.88;;;11.20;99.90;;;;;;4951514;28;20449;-79
2022/10/22 03:17:46;;;;;;;33.35;11.95;;;11.20;99.90;;;;;;4951594;28;20043;-79
2022/10/22 03:20:12;;;;;;;27.15;11.52;;;11.20;99.90;;;;;;4946340;28;20474;-80
2022/10/22 03:22:41;;;;;;;17.40;10.95;;;11.20;99.90;;;;;;4936396;28;20050;-80
2022/10/22 03:25:11;;;;;;;16.58;11.45;;;11.30;99.90;;;;;;4948618;28;20075;-80
2022/10/22 03:27:38;;;;;;;20.98;11.70;;;11.30;99.90;;;;;;4934131;29;20093;-79
2022/10/22 03:30:05;;;;;;;24.08;13.02;;;11.40;99.90;;;;;;4951905;28;20074;-80
2022/10/22 03:32:31;;;;;;;20.70;12.65;;;11.40;99.90;;;;;;4951494;28;20458;-79
2022/10/22 03:34:57;;;;;;;18.00;12.88;;;11.50;99.90;;;;;;4951546;28;20052;-80
2022/10/22 03:37:24;;;;;;;20.75;12.93;;;11.50;99.90;;;;;;4950398;28;20101;-79
2022/10/22 03:39:50;;;;;;;20.42;13.00;;;11.40;99.90;;;;;;4951541;28;20047;-80
2022/10/22 03:42:16;;;;;;;25.48;12.55;;;11.50;99.90;;;;;;4950717;29;20743;-79
2022/10/22 03:44:42;;;;;;;21.42;12.18;;;11.50;99.90;;;;;;4951694;28;20102;-80
2022/10/22 03:47:08;;;;;;;21.92;13.43;;;11.50;99.90;;;;;;4951302;28;20039;-79
2022/10/22 03:49:33;;;;;;;18.95;13.20;;;11.40;99.90;;;;;;4950636;28;20047;-80
2022/10/22 03:52:09;;;;;;;18.42;12.07;;;11.50;99.90;;;;;;4951519;28;20386;-79
2022/10/22 03:54:35;;;;;;;23.63;13.05;;;11.50;99.90;;;;;;4950782;28;20497;-80
2022/10/22 03:57:01;;;;;;;25.75;14.05;;;11.40;99.90;;;;;;4949633;28;20421;-79
2022/10/22 03:59:27;;;;;;;22.13;13.00;;;11.50;99.90;;;;;;4950637;28;20494;-79
2022/10/22 04:01:52;;;;;;;24.10;13.15;;;11.40;99.90;;;;;;4951135;28;20054;-79
2022/10/22 04:04:18;;;;;;;23.67;12.57;;;10.80;99.90;;;;;;4950458;28;20559;-79
2022/10/22 04:06:44;;;;;;;21.45;12.38;;;11.30;99.90;;;;;;4950905;28;20047;-79
2022/10/22 04:09:09;;;;;;;19.70;13.43;;;11.30;99.90;;;;;;4947255;28;20150;-79
2022/10/22 04:11:35;;;;;;;21.33;13.85;;;11.30;99.90;;;;;;4949333;28;20481;-80
2022/10/22 04:14:00;;;;;;;20.67;13.68;;;11.30;99.90;;;;;;4949021;29;20382;-79
2022/10/22 04:16:29;;;;;;;20.85;13.88;;;11.30;99.90;;;;;;4950201;28;20043;-79
2022/10/22 04:18:55;;;;;;;21.63;13.45;;;11.20;99.90;;;;;;4948309;28;20531;-79
2022/10/22 04:21:21;;;;;;;22.17;13.90;;;11.20;99.90;;;;;;4950013;28;20047;-79
2022/10/22 04:23:49;;;;;;;25.83;13.98;;;11.20;99.90;;;;;;4948777;28;21233;-79
2022/10/22 04:26:16;;;;;;;20.00;13.05;;;11.20;99.90;;;;;;4965398;28;20093;-79
2022/10/22 04:28:43;;;;;;;19.55;13.13;;;11.20;99.90;;;;;;4966448;28;20054;-79
2022/10/22 04:31:16;;;;;;;25.50;13.18;;;11.10;99.90;;;;;;4947650;28;20171;-79
2022/10/22 04:33:42;;;;;;;23.50;13.23;;;11.20;99.90;;;;;;4950888;28;20502;-79
2022/10/22 04:36:13;;;;;;;21.55;14.02;;;11.20;99.90;;;;;;4949800;28;20409;-79
2022/10/22 04:38:40;;;;;;;23.90;13.10;;;11.20;99.90;;;;;;4949855;28;20047;-79
2022/10/22 04:41:24;;;;;;;28.15;14.10;;;11.20;99.90;;;;;;4949891;28;20079;-79
2022/10/22 04:43:50;;;;;;;22.60;14.18;;;11.20;99.90;;;;;;4950695;28;20130;-79
2022/10/22 04:46:16;;;;;;;23.50;14.57;;;11.20;99.90;;;;;;4948988;28;20130;-80
2022/10/22 04:48:43;;;;;;;20.10;13.05;;;11.20;99.90;;;;;;4950852;28;20059;-79
2022/10/22 04:51:12;;;;;;;22.05;13.93;;;11.20;99.90;;;;;;4949592;28;20052;-79
2022/10/22 04:53:39;;;;;;;22.00;12.65;;;11.20;99.90;;;;;;4950778;28;20544;-80
2022/10/22 04:56:20;;;;;;;21.60;14.20;;;11.20;99.90;;;;;;4948819;29;20059;-80
2022/10/22 04:58:52;;;;;;;20.30;12.63;;;11.20;99.90;;;;;;4926908;28;20542;-80
2022/10/22 05:01:21;;;;;;;28.33;13.63;;;11.20;99.90;;;;;;4949688;28;20055;-79
2022/10/22 05:03:48;;;;;;;20.42;13.70;;;11.20;99.90;;;;;;4949200;28;20043;-79
2022/10/22 05:06:14;;;;;;;22.42;12.93;;;11.20;99.90;;;;;;4965803;28;20098;-79
2022/10/22 05:08:40;;;;;;;25.42;14.00;;;11.70;99.90;;;;;;4949648;28;20134;-80
2022/10/22 05:11:17;;;;;;;28.23;13.68;;;11.30;99.90;;;;;;4949753;28;20146;-79
2022/10/22 05:13:42;;;;;;;22.05;13.85;;;11.20;99.90;;;;;;4935663;29;20039;-79
2022/10/22 05:16:11;;;;;;;29.27;13.98;;;11.30;99.90;;;;;;4948926;29;20119;-80
2022/10/22 05:18:39;;;;;;;23.67;13.57;;;11.30;99.90;;;;;;4926385;29;20051;-80
2022/10/22 05:21:08;;;;;;;24.23;14.65;;;11.30;99.90;;;;;;4931589;29;20058;-79
2022/10/22 05:23:34;;;;;;;28.65;14.27;;;11.30;99.90;;;;;;4931295;28;20051;-79
2022/10/22 05:26:07;;;;;;;20.00;13.57;;;11.30;99.90;;;;;;4951395;28;20371;-80
2022/10/22 05:28:39;;;;;;;21.30;13.25;;;11.20;99.90;;;;;;4949173;28;20697;-79
2022/10/22 05:31:09;;;;;;;20.25;12.38;;;11.30;99.90;;;;;;4948912;28;20051;-79
2022/10/22 05:33:39;;;;;;;27.33;13.18;;;11.00;99.90;;;;;;4951307;28;20163;-79
2022/10/22 05:36:06;;;;;;;25.10;13.13;;;11.40;99.90;;;;;;4949331;29;20047;-79
2022/10/22 05:38:33;;;;;;;21.83;13.07;;;11.30;99.90;;;;;;4947589;28;20764;-79
2022/10/22 05:41:13;;;;;;;21.75;13.73;;;11.30;99.90;;;;;;4951107;28;20120;-79
2022/10/22 05:43:39;;;;;;;24.65;13.73;;;11.40;99.90;;;;;;4943660;28;20035;-79
2022/10/22 05:46:11;;;;;;;23.85;14.20;;;11.30;99.90;;;;;;4947166;28;20051;-80
2022/10/22 05:48:37;;;;;;;24.15;13.20;;;11.40;99.90;;;;;;4940015;28;20040;-79
2022/10/22 05:51:04;;;;;;;35.95;13.88;;;11.40;99.90;;;;;;4928958;28;20070;-79
2022/10/22 05:53:35;;;;;;;26.00;14.05;;;11.40;99.90;;;;;;4930827;29;20107;-79
2022/10/22 05:56:07;;;;;;;25.40;14.07;;;11.40;99.90;;;;;;4949260;28;20051;-79
2022/10/22 05:58:33;;;;;;;20.05;12.57;;;11.40;99.90;;;;;;4949092;28;20051;-80
2022/10/22 06:01:11;;;;;;;25.15;13.02;;;11.40;99.90;;;;;;4949343;28;20043;-79
2022/10/22 06:03:36;;;;;;;33.00;13.73;;;11.40;99.90;;;;;;4947580;28;20074;-79
2022/10/22 06:06:11;;;;;;;29.15;13.50;;;11.40;99.90;;;;;;4948844;29;20133;-79
2022/10/22 06:08:36;;;;;;;21.58;13.32;;;11.40;99.90;;;;;;4947580;28;20047;-79
2022/10/22 06:11:02;;;;;;;18.65;12.93;;;11.40;99.90;;;;;;4932288;28;20043;-79
2022/10/22 06:13:27;;;;;;;23.17;13.05;;;11.40;99.90;;;;;;4945597;28;20043;-79
2022/10/22 06:15:53;;;;;;;21.45;12.52;;;11.40;99.90;;;;;;4949969;29;20136;-79
2022/10/22 06:18:19;;;;;;;23.98;13.10;;;11.40;99.90;;;;;;4947364;29;20126;-80
2022/10/22 06:20:46;;;;;;;28.15;12.93;;;11.50;99.90;;;;;;4949219;28;20134;-80
2022/10/22 06:23:12;;;;;;;25.50;12.77;;;11.50;99.90;;;;;;4947537;28;20047;-80
2022/10/22 06:25:37;;;;;;;22.35;12.95;;;11.50;99.90;;;;;;4948016;29;20508;-79
2022/10/22 06:28:03;;;;;;;26.33;14.00;;;11.50;99.90;;;;;;4947984;29;20051;-79
2022/10/22 06:30:28;;;;;;;19.15;11.23;;;11.50;99.90;;;;;;4946387;28;20051;-79
2022/10/22 06:32:55;;;;;;;20.55;12.45;;;11.50;99.90;;;;;;4932182;29;20054;-79
2022/10/22 06:35:20;;;;;;;19.27;12.18;;;11.60;99.90;;;;;;4948887;28;20430;-79
2022/10/22 06:37:46;;;;;;;25.00;12.02;;;11.60;99.90;;;;;;4948682;29;20509;-79
2022/10/22 06:40:12;;;;;;;18.50;12.20;;;11.60;99.90;;;;;;4949039;29;20047;-79
2022/10/22 06:42:37;;;;;;;18.58;11.90;;;11.60;99.90;;;;;;4945548;28;20047;-79
2022/10/22 06:45:03;;;;;;;18.88;11.50;;;11.60;99.90;;;;;;4948039;28;20047;-78
2022/10/22 06:47:39;;;;;;;20.88;11.50;;;11.70;99.90;;;;;;4933936;29;20070;-79
2022/10/22 06:50:04;;;;;;;18.20;11.48;;;11.70;99.90;;;;;;4947684;28;20043;-79
2022/10/22 06:52:30;;;;;;;17.85;11.45;;;11.70;99.90;;;;;;4948414;28;20854;-79
2022/10/22 06:54:56;;;;;;;18.98;11.75;;;11.80;99.90;;;;;;4948566;28;20121;-79
2022/10/22 06:57:21;;;;;;;26.90;11.35;;;11.80;99.90;;;;;;4946600;28;20130;-79
2022/10/22 06:59:47;;;;;;;20.95;11.27;;;11.80;99.90;;;;;;4947678;28;20050;-78
2022/10/22 07:02:12;;;;;;;19.30;10.98;;;11.90;99.90;;;;;;4947763;28;20059;-79
2022/10/22 07:04:38;;;;;;;18.33;10.82;;;11.90;99.90;;;;;;4948927;28;20051;-79
2022/10/22 07:07:03;;;;;;;21.83;12.10;;;12.00;99.90;;;;;;4948582;28;20052;-78
2022/10/22 07:09:29;;;;;;;21.52;11.32;;;12.00;99.90;;;;;;4948713;28;20043;-79
2022/10/22 07:11:54;;;;;;;17.50;11.77;;;12.10;99.90;;;;;;4948064;28;20058;-79
2022/10/22 07:14:20;;;;;;;20.67;11.77;;;12.10;99.90;;;;;;4948603;29;20118;-79
2022/10/22 07:16:45;;;;;;;20.85;11.70;;;12.10;99.90;;;;;;4932929;29;20059;-79
2022/10/22 07:19:12;;;;;;;17.55;11.73;;;12.20;99.90;;;;;;4932590;29;20039;-79
2022/10/22 07:21:38;;;;;;;25.80;11.20;;;12.30;99.90;;;;;;4948834;29;20397;-79
2022/10/22 07:24:03;;;;;;;15.13;10.07;;;12.40;99.90;;;;;;4948777;29;20047;-79
2022/10/22 07:26:29;;;;;;;21.45;10.93;;;12.40;99.90;;;;;;4964030;28;20048;-79
2022/10/22 07:28:55;;;;;;;16.40;9.85;;;12.60;99.90;;;;;;4948866;29;20102;-80
2022/10/22 07:31:21;;;;;;;16.83;9.00;;;12.60;99.90;;;;;;4948891;29;20054;-79
2022/10/22 07:33:47;;;;;;;16.80;9.60;;;12.60;99.90;;;;;;4948507;28;20051;-80
2022/10/22 07:36:16;;;;;;;16.40;10.07;;;12.70;99.90;;;;;;4948538;28;20043;-79
2022/10/22 07:38:54;;;;;;;16.65;9.50;;;12.80;99.90;;;;;;4933139;29;20058;-79
2022/10/22 07:41:20;;;;;;;19.38;9.23;;;12.90;99.90;;;;;;4948284;29;20055;-79
2022/10/22 07:43:45;;;;;;;18.25;8.82;;;12.90;99.90;;;;;;4949956;28;20051;-79
2022/10/22 07:46:11;;;;;;;15.10;8.63;;;13.00;99.90;;;;;;4951584;29;20050;-79
2022/10/22 07:48:37;;;;;;;14.60;9.05;;;13.00;99.90;;;;;;4951820;29;20401;-79
2022/10/22 07:51:03;;;;;;;22.08;9.65;;;13.10;99.90;;;;;;4951864;29;20153;-79
2022/10/22 07:53:29;;;;;;;14.48;8.35;;;13.40;99.90;;;;;;4951763;29;20133;-80
2022/10/22 07:55:55;;;;;;;17.80;8.88;;;13.20;99.90;;;;;;4951996;28;20083;-80
2022/10/22 07:58:22;;;;;;;18.05;8.73;;;13.20;99.90;;;;;;4951034;29;20058;-80
2022/10/22 08:00:48;;;;;;;14.68;8.75;;;13.30;99.90;;;;;;4951418;29;20043;-80
2022/10/22 08:03:15;;;;;;;15.18;7.95;;;13.30;99.90;;;;;;4935825;29;20054;-80
2022/10/22 08:05:42;;;;;;;12.13;7.53;;;13.30;99.90;;;;;;4951402;29;20126;-80
2022/10/22 08:08:09;;;;;;;16.13;7.20;;;13.40;99.90;;;;;;4951381;29;20051;-80
2022/10/22 08:10:35;;;;;;;10.50;7.20;;;13.50;99.90;;;;;;4950672;29;20095;-81
2022/10/22 08:13:00;;;;;;;10.65;7.00;;;13.50;99.90;;;;;;4948614;28;20039;-80
2022/10/22 08:15:26;;;;;;;11.95;6.90;;;13.70;99.90;;;;;;4950759;29;20119;-80
2022/10/22 08:17:52;;;;;;;16.58;7.13;;;13.70;99.90;;;;;;4950504;29;20099;-80
2022/10/22 08:20:18;;;;;;;11.25;6.88;;;13.70;99.90;;;;;;4948729;29;20548;-79
2022/10/22 08:22:44;;;;;;;12.25;6.60;;;13.80;99.90;;;;;;4951068;29;20047;-81
2022/10/22 08:25:10;;;;;;;13.00;7.32;;;13.80;99.90;;;;;;4951079;29;20058;-80
2022/10/22 08:27:36;;;;;;;10.43;6.45;;;13.90;99.90;;;;;;4950887;28;20062;-80
2022/10/22 08:30:03;;;;;;;13.23;6.65;;;13.80;99.90;;;;;;4952398;28;20043;-80
2022/10/22 08:32:29;;;;;;;17.08;6.03;;;13.90;99.90;;;;;;4966007;28;20059;-81
2022/10/22 08:34:55;;;;;;;15.48;6.47;;;;;;;;;;4949676;28;20051;-80
2022/10/22 08:37:21;;;;;;;15.27;6.88;;;14.00;99.90;;;;;;4950744;29;20142;-80
2022/10/22 08:39:46;;;;;;;12.32;5.57;;;14.10;99.90;;;;;;4950717;28;20062;-80
2022/10/22 08:42:57;;;;;;;11.75;5.95;;;14.20;99.90;;;;;;4950613;28;20043;-79
2022/10/22 08:45:45;;;;;;;16.75;6.28;;;14.20;99.90;;;;;;4951029;28;20055;-79
2022/10/22 08:48:34;;;;;;;11.30;6.10;;;14.30;99.90;;;;;;4948113;29;20506;-79
2022/10/22 08:51:00;;;;;;;7.45;5.43;;;14.40;99.90;;;;;;4951092;28;20044;-79
2022/10/22 08:53:57;;;;;;;15.23;5.57;;;14.40;99.90;;;;;;4948823;28;20049;-79
2022/10/22 08:56:23;;;;;;;9.98;6.03;;;14.50;99.90;;;;;;4938550;28;20497;-79
2022/10/22 08:59:04;;;;;;;11.10;5.30;;;14.60;99.90;;;;;;4948463;29;20087;-79
2022/10/22 09:01:41;;;;;;;12.13;5.35;;;14.70;99.90;;;;;;4931664;29;20439;-79
2022/10/22 09:04:15;;;;;;;16.35;5.40;;;14.70;99.90;;;;;;4931562;29;20048;-80
2022/10/22 09:06:46;;;;;;;8.95;5.38;;;14.80;99.90;;;;;;4931411;29;20533;-80
2022/10/22 09:09:15;;;;;;;12.40;4.72;;;14.90;99.90;;;;;;4931291;29;20047;-80
2022/10/22 09:11:45;;;;;;;8.05;4.78;;;15.00;99.90;;;;;;4946789;29;20070;-79
2022/10/22 09:14:18;;;;;;;13.68;4.97;;;15.10;99.90;;;;;;4934231;29;20054;-80
2022/10/22 09:16:56;;;;;;;13.73;4.53;;;15.10;99.90;;;;;;4950276;29;20046;-79
2022/10/22 09:19:36;;;;;;;13.95;4.28;;;15.10;99.90;;;;;;4949852;29;20457;-79
2022/10/22 09:22:12;;;;;;;12.32;4.53;;;15.20;99.90;;;;;;4950052;29;20501;-79
2022/10/22 09:24:43;;;;;;;15.10;4.22;;;15.20;99.90;;;;;;4948319;28;20050;-78
2022/10/22 09:27:15;;;;;;;9.90;4.70;;;15.20;99.90;;;;;;4947864;29;20055;-78
2022/10/22 09:29:40;;;;;;;;;;;15.30;99.90;;;;;;4950707;28;20059;-78
2022/10/22 09:32:06;;;;;;;10.50;4.63;;;15.40;99.90;;;;;;4948933;28;19937;-79
2022/10/22 09:34:32;;;;;;;8.18;4.15;;;15.40;99.90;;;;;;4949124;29;20098;-79
2022/10/22 09:37:00;;;;;;;8.85;3.80;;;15.50;99.90;;;;;;4945132;28;20044;-78
2022/10/22 09:39:42;;;;;;;16.73;4.13;;;15.60;99.90;;;;;;4946852;28;20043;-80
2022/10/22 09:42:09;;;;;;;;;;;15.60;99.90;;;;;;4942969;28;20055;-78
2022/10/22 09:44:36;;;;;;;21.35;3.83;;;15.60;99.90;;;;;;4947856;28;20348;-79
2022/10/22 09:47:07;;;;;;;6.45;3.60;;;15.70;99.90;;;;;;4960548;28;20440;-79
2022/10/22 09:49:34;;;;;;;6.15;3.50;;;15.70;99.90;;;;;;4945564;28;20149;-79
2022/10/22 09:52:01;;;;;;;11.85;4.00;;;15.60;99.90;;;;;;4944978;28;20040;-79
2022/10/22 09:54:37;;;;;;;9.00;3.75;;;15.70;99.90;;;;;;4948417;28;20059;-79
2022/10/22 09:57:12;;;;;;;11.90;3.78;;;15.70;99.90;;;;;;4947868;28;20059;-79
2022/10/22 09:59:42;;;;;;;8.70;3.45;;;15.60;99.90;;;;;;4947995;28;20054;-80
2022/10/22 10:02:08;;;;;;;11.63;4.25;;;15.60;99.90;;;;;;4947112;28;20055;-79
2022/10/22 10:04:39;;;;;;;7.45;3.65;;;15.60;99.90;;;;;;4948228;28;20159;-78
2022/10/22 10:07:18;;;;;;;11.65;4.03;;;15.60;99.90;;;;;;4948150;28;20047;-78
2022/10/22 10:09:45;;;;;;;7.38;3.90;;;15.60;99.90;;;;;;4919056;29;20054;-79
2022/10/22 10:12:30;;;;;;;11.50;3.85;;;15.60;99.90;;;;;;4948332;28;20403;-79
2022/10/22 10:15:14;;;;;;;8.45;4.07;;;15.60;99.90;;;;;;4932888;29;20043;-79
2022/10/22 10:17:44;;;;;;;10.30;4.63;;;15.60;99.90;;;;;;4948101;28;20532;-79
2022/10/22 10:20:22;;;;;;;14.10;4.50;;;15.70;99.90;;;;;;4948604;28;20445;-79
2022/10/22 10:23:06;;;;;;;6.85;3.67;;;15.70;99.90;;;;;;4948339;28;20074;-79
2022/10/22 10:25:40;;;;;;;8.90;3.85;;;15.70;99.90;;;;;;4947661;29;20925;-78
2022/10/22 10:28:08;;;;;;;6.82;3.60;;;15.80;99.90;;;;;;4947624;28;20073;-78
2022/10/22 10:30:41;;;;;;;5.82;3.70;;;15.80;99.90;;;;;;4947900;28;20054;-79
2022/10/22 10:33:13;;;;;;;6.72;4.20;;;15.80;99.90;;;;;;4947527;28;20051;-78
2022/10/22 10:36:07;;;;;;;10.43;3.85;;;15.90;99.90;;;;;;4945300;28;20071;-79
2022/10/22 10:38:52;;;;;;;8.30;4.15;;;16.00;99.90;;;;;;4943059;28;20059;-79
2022/10/22 10:41:28;;;;;;;16.65;4.20;;;16.10;99.90;;;;;;4939705;28;20051;-79
2022/10/22 10:44:11;;;;;;;8.45;4.03;;;16.20;99.90;;;;;;4947550;28;20059;-79
2022/10/22 10:46:50;;;;;;;12.30;4.10;;;16.20;99.90;;;;;;4946070;28;20417;-79
2022/10/22 10:49:21;;;;;;;8.80;4.32;;;16.20;99.90;;;;;;4942887;28;20083;-79
2022/10/22 10:52:02;;;;;;;16.70;4.85;;;16.20;99.90;;;;;;4943033;28;20432;-79
2022/10/22 10:54:32;;;;;;;11.90;4.60;;;16.10;99.90;;;;;;4941596;28;20040;-79
2022/10/22 10:57:25;;;;;;;9.60;4.18;;;16.10;99.90;;;;;;4947852;28;20370;-78
2022/10/22 11:00:05;;;;;;;13.55;5.15;;;16.00;99.90;;;;;;4942322;28;20126;-78
2022/10/22 11:02:58;;;;;;;12.55;4.53;;;16.00;99.90;;;;;;4944748;28;20462;-79
2022/10/22 11:05:56;;;;;;;;;;;15.90;99.90;;;;;;4931989;28;20047;-79
2022/10/22 11:09:17;;;;;;;9.50;4.80;;;15.90;99.90;;;;;;4915375;28;19981;-79
2022/10/22 11:11:55;;;;;;;12.63;5.60;;;15.80;99.90;;;;;;4943848;29;20413;-79
2022/10/22 11:14:39;;;;;;;10.23;5.90;;;15.70;99.90;;;;;;4947536;29;20054;-78
2022/10/22 11:17:16;;;;;;;10.02;5.70;;;15.60;99.90;;;;;;4961977;28;20406;-79
2022/10/22 11:19:55;;;;;;;12.48;5.90;;;15.50;99.90;;;;;;4950386;28;20505;-79
2022/10/22 11:22:29;;;;;;;9.82;5.68;;;15.50;99.90;;;;;;4951247;29;20054;-79
2022/10/22 11:25:01;;;;;;;8.82;5.95;;;15.40;99.90;;;;;;4963427;28;20054;-79
2022/10/22 11:27:39;;;;;;;9.38;5.85;;;15.50;99.90;;;;;;4933800;29;20055;-79
2022/10/22 11:30:13;;;;;;;11.07;6.15;;;15.50;99.90;;;;;;4950195;28;20043;-79
2022/10/22 11:32:41;;;;;;;13.90;6.13;;;15.60;99.90;;;;;;4949167;28;20397;-79
2022/10/22 11:35:14;;;;;;;13.57;5.57;;;15.60;99.90;;;;;;4951784;28;20788;-79
2022/10/22 11:37:42;;;;;;;29.50;6.55;;;15.60;99.90;;;;;;4967112;28;20106;-77
2022/10/22 11:40:28;;;;;;;11.57;5.80;;;15.70;99.90;;;;;;4948333;28;20078;-77
2022/10/22 11:43:25;;;;;;;13.52;5.78;;;15.70;99.90;;;;;;4943565;28;20070;-79
2022/10/22 11:46:01;;;;;;;9.57;5.82;;;15.80;99.90;;;;;;4947775;28;20464;-79
2022/10/22 11:48:34;;;;;;;7.97;5.30;;;15.90;99.90;;;;;;4950337;28;20137;-78
2022/10/22 11:51:01;;;;;;;11.38;5.80;;;16.10;99.90;;;;;;4952134;29;20047;-79
2022/10/22 11:53:33;;;;;;;9.40;5.22;;;16.10;99.90;;;;;;4950720;28;20043;-79
2022/10/22 11:56:20;;;;;;;11.48;5.60;;;16.20;99.90;;;;;;4931562;28;20062;-79
2022/10/22 11:58:47;;;;;;;10.13;5.70;;;16.30;99.90;;;;;;4949880;28;20473;-77
2022/10/22 12:01:12;;;;;;;10.93;5.10;;;16.40;99.90;;;;;;4950961;28;20552;-78
2022/10/22 12:04:11;;;;;;;13.82;5.18;;;16.50;99.90;;;;;;4949376;28;20051;-80
2022/10/22 12:06:55;;;;;;;9.55;5.30;;;16.40;99.90;;;;;;4942782;28;20059;-80
2022/10/22 12:09:25;;;;;;;10.43;5.35;;;16.40;99.90;;;;;;4947667;28;20035;-80
2022/10/22 12:11:51;;;;;;;25.55;6.97;;;16.40;99.90;;;;;;4932392;28;20101;-80
2022/10/22 12:14:33;;;;;;;9.40;4.93;;;16.70;99.90;;;;;;4949564;28;20054;-79
2022/10/22 12:17:09;;;;;;;9.68;4.95;;;16.50;99.90;;;;;;4950152;28;20130;-79
2022/10/22 12:19:46;;;;;;;10.23;4.68;;;16.50;99.90;;;;;;4948820;28;20047;-80
2022/10/22 12:22:26;;;;;;;8.88;4.53;;;16.50;99.90;;;;;;4966909;28;20050;-78
2022/10/22 12:24:54;;;;;;;9.00;5.00;;;16.40;99.90;;;;;;4949486;28;20177;-80
2022/10/22 12:27:25;;;;;;;17.50;5.25;;;16.40;99.90;;;;;;4950593;28;20102;-80
2022/10/22 12:29:59;;;;;;;13.10;4.60;;;16.30;99.90;;;;;;4948255;28;20072;-79
2022/10/22 12:32:43;;;;;;;22.30;5.22;;;16.30;99.90;;;;;;4945593;28;20446;-79
2022/10/22 12:35:19;;;;;;;14.75;5.20;;;16.30;99.90;;;;;;4941351;28;20047;-80
2022/10/22 12:37:48;;;;;;;13.05;5.60;;;16.10;99.90;;;;;;4937988;28;20066;-80
2022/10/22 12:40:22;;;;;;;11.55;4.93;;;16.10;99.90;;;;;;4947911;28;20159;-79
2022/10/22 12:42:49;;;;;;;8.90;4.90;;;16.00;99.90;;;;;;4932745;28;20048;-80
2022/10/22 12:45:15;;;;;;;18.48;4.85;;;16.00;99.90;;;;;;4949914;28;20077;-79
2022/10/22 12:47:46;;;;;;;9.65;5.05;;;16.00;99.90;;;;;;4949624;28;20490;-80
2022/10/22 12:50:19;;;;;;;10.10;4.33;;;16.00;99.90;;;;;;4953994;28;20047;-79
2022/10/22 12:52:46;;;;;;;8.30;5.03;;;16.00;99.90;;;;;;4952434;28;20371;-80
2022/10/22 12:55:21;;;;;;;9.25;4.53;;;16.00;99.90;;;;;;4951926;28;20145;-80
2022/10/22 12:57:48;;;;;;;15.07;5.10;;;15.90;99.90;;;;;;4948344;28;20118;-80